createdAt,value
2022-12-29T00:00:56.661Z,60.88
2022-12-29T00:01:56.704Z,60.57
2022-12-29T00:02:56.892Z,60.47
2022-12-29T00:03:56.924Z,60.77
2022-12-29T00:04:56.957Z,60.18
2022-12-29T00:05:57.097Z,60.16
2022-12-29T00:06:57.126Z,60.36
2022-12-29T00:07:57.223Z,60.57
2022-12-29T00:08:57.302Z,60.91
2022-12-29T00:09:57.397Z,60.08
2022-12-29T00:10:57.490Z,59.36
2022-12-29T00:11:57.575Z,59.05
2022-12-29T00:12:57.663Z,58.81
2022-12-29T00:13:57.753Z,58.20
2022-12-29T00:14:57.836Z,58.50
2022-12-29T00:15:58.006Z,58.09
2022-12-29T00:16:57.979Z,58.40
2022-12-29T00:17:58.051Z,58.71
2022-12-29T00:18:58.133Z,58.81
2022-12-29T00:19:58.229Z,59.02
2022-12-29T00:20:58.350Z,58.92
2022-12-29T00:21:58.414Z,58.92
2022-12-29T00:22:58.501Z,59.02
2022-12-29T00:23:58.603Z,59.64
2022-12-29T00:24:58.655Z,59.84
2022-12-29T00:25:58.766Z,60.26
2022-12-29T00:26:58.811Z,60.16
2022-12-29T00:28:04.793Z,60.05
2022-12-29T00:28:58.973Z,59.84
2022-12-29T00:29:59.062Z,59.44
2022-12-29T00:30:59.260Z,58.71
2022-12-29T00:31:59.189Z,58.30
2022-12-29T00:32:59.271Z,57.47
2022-12-29T00:33:59.345Z,57.99
2022-12-29T00:34:59.416Z,58.09
2022-12-29T00:35:59.558Z,57.89
2022-12-29T00:36:59.592Z,57.89
2022-12-29T00:37:59.688Z,57.06
2022-12-29T00:38:59.761Z,57.89
2022-12-29T00:39:59.844Z,57.68
2022-12-29T00:40:59.923Z,57.78
2022-12-29T00:42:00.002Z,57.89
2022-12-29T00:43:00.081Z,57.99
2022-12-29T00:44:00.172Z,58.40
2022-12-29T00:45:00.237Z,58.61
2022-12-29T00:46:00.372Z,58.71
2022-12-29T00:47:00.473Z,58.81
2022-12-29T00:48:00.500Z,58.61
2022-12-29T00:49:00.598Z,58.71
2022-12-29T00:50:00.717Z,58.92
2022-12-29T00:51:00.771Z,59.23
2022-12-29T00:52:00.799Z,59.33
2022-12-29T00:53:00.888Z,59.23
2022-12-29T00:54:00.952Z,59.33
2022-12-29T00:55:01.051Z,59.74
2022-12-29T00:56:01.162Z,59.84
2022-12-29T00:57:01.238Z,60.05
2022-12-29T00:58:01.319Z,60.47
2022-12-29T00:59:01.450Z,60.36
2022-12-29T01:00:01.468Z,60.26
2022-12-29T01:01:01.642Z,60.36
2022-12-29T01:02:01.721Z,60.36
2022-12-29T01:03:01.854Z,60.16
2022-12-29T01:04:04.088Z,59.98
2022-12-29T01:05:01.892Z,59.67
2022-12-29T01:06:02.014Z,59.77
2022-12-29T01:07:02.051Z,59.77
2022-12-29T01:08:02.119Z,59.98
2022-12-29T01:09:02.205Z,59.77
2022-12-29T01:10:02.313Z,59.88
2022-12-29T01:11:02.438Z,59.77
2022-12-29T01:12:02.475Z,59.77
2022-12-29T01:13:02.563Z,59.88
2022-12-29T01:14:02.631Z,60.08
2022-12-29T01:15:02.709Z,60.28
2022-12-29T01:16:02.859Z,60.28
2022-12-29T01:17:02.874Z,60.39
2022-12-29T01:18:02.942Z,60.18
2022-12-29T01:19:03.041Z,60.08
2022-12-29T01:20:03.136Z,59.95
2022-12-29T01:21:03.258Z,59.95
2022-12-29T01:22:03.338Z,60.05
2022-12-29T01:23:03.406Z,59.95
2022-12-29T01:24:03.490Z,60.36
2022-12-29T01:25:03.593Z,60.39
2022-12-29T01:26:03.688Z,60.16
2022-12-29T01:27:03.771Z,59.98
2022-12-29T01:28:03.864Z,59.98
2022-12-29T01:29:03.926Z,59.95
2022-12-29T01:30:03.992Z,60.26
2022-12-29T01:31:04.291Z,60.05
2022-12-29T01:32:04.211Z,60.16
2022-12-29T01:33:04.230Z,60.36
2022-12-29T01:34:04.314Z,60.36
2022-12-29T01:35:04.432Z,60.36
2022-12-29T01:36:04.499Z,60.47
2022-12-29T01:37:04.581Z,60.47
2022-12-29T01:38:04.657Z,60.57
2022-12-29T01:39:04.751Z,60.67
2022-12-29T01:40:04.828Z,60.77
2022-12-29T01:41:04.930Z,60.67
2022-12-29T01:42:04.969Z,60.70
2022-12-29T01:43:05.064Z,60.77
2022-12-29T01:44:05.095Z,60.77
2022-12-29T01:45:05.195Z,60.77
2022-12-29T01:46:05.333Z,60.88
2022-12-29T01:47:05.361Z,61.08
2022-12-29T01:48:05.459Z,61.19
2022-12-29T01:49:05.550Z,61.42
2022-12-29T01:50:05.659Z,61.50
2022-12-29T01:51:05.740Z,61.42
2022-12-29T01:52:05.815Z,61.32
2022-12-29T01:53:05.911Z,61.42
2022-12-29T01:54:05.987Z,61.52
2022-12-29T01:55:06.060Z,61.32
2022-12-29T01:56:06.122Z,61.22
2022-12-29T01:57:06.217Z,61.32
2022-12-29T01:58:06.307Z,61.22
2022-12-29T01:59:06.396Z,60.91
2022-12-29T02:00:06.483Z,60.91
2022-12-29T02:01:06.662Z,61.01
2022-12-29T02:02:06.678Z,61.11
2022-12-29T02:03:06.740Z,61.32
2022-12-29T02:04:06.789Z,61.32
2022-12-29T02:05:06.859Z,61.42
2022-12-29T02:06:06.921Z,61.42
2022-12-29T02:07:06.971Z,61.52
2022-12-29T02:08:07.054Z,61.73
2022-12-29T02:09:07.145Z,61.73
2022-12-29T02:10:07.291Z,61.73
2022-12-29T02:11:07.352Z,61.73
2022-12-29T02:12:07.417Z,61.83
2022-12-29T02:13:07.498Z,61.83
2022-12-29T02:14:07.581Z,61.94
2022-12-29T02:15:07.659Z,61.94
2022-12-29T02:16:07.825Z,62.04
2022-12-29T02:17:07.814Z,62.04
2022-12-29T02:18:07.885Z,62.04
2022-12-29T02:19:07.959Z,62.25
2022-12-29T02:20:08.017Z,62.04
2022-12-29T02:21:08.109Z,62.15
2022-12-29T02:22:08.182Z,62.25
2022-12-29T02:23:08.261Z,62.35
2022-12-29T02:24:08.331Z,62.35
2022-12-29T02:25:08.422Z,62.46
2022-12-29T02:26:08.518Z,62.66
2022-12-29T02:27:08.596Z,62.46
2022-12-29T02:28:08.677Z,62.25
2022-12-29T02:29:08.760Z,62.15
2022-12-29T02:30:08.864Z,62.25
2022-12-29T02:31:08.942Z,62.35
2022-12-29T02:32:09.095Z,62.46
2022-12-29T02:33:09.113Z,62.55
2022-12-29T02:34:09.194Z,62.55
2022-12-29T02:35:09.285Z,62.66
2022-12-29T02:36:09.370Z,62.66
2022-12-29T02:37:09.412Z,62.66
2022-12-29T02:38:09.502Z,62.76
2022-12-29T02:39:09.588Z,62.76
2022-12-29T02:40:09.685Z,62.66
2022-12-29T02:41:09.792Z,62.55
2022-12-29T02:42:09.865Z,62.46
2022-12-29T02:43:09.941Z,62.66
2022-12-29T02:44:10.013Z,62.76
2022-12-29T02:45:10.094Z,62.87
2022-12-29T02:46:10.263Z,62.87
2022-12-29T02:47:10.258Z,62.76
2022-12-29T02:48:10.331Z,62.76
2022-12-29T02:49:10.435Z,62.87
2022-12-29T02:50:10.514Z,62.66
2022-12-29T02:51:10.637Z,62.15
2022-12-29T02:52:10.663Z,61.94
2022-12-29T02:53:10.743Z,61.83
2022-12-29T02:54:10.821Z,61.83
2022-12-29T02:55:10.899Z,61.83
2022-12-29T02:56:10.993Z,61.94
2022-12-29T02:57:11.096Z,62.25
2022-12-29T02:58:11.130Z,62.15
2022-12-29T02:59:11.210Z,61.83
2022-12-29T03:00:11.326Z,62.04
2022-12-29T03:01:11.453Z,62.25
2022-12-29T03:02:11.563Z,62.35
2022-12-29T03:03:11.613Z,62.46
2022-12-29T03:04:11.616Z,62.35
2022-12-29T03:05:11.708Z,62.15
2022-12-29T03:06:11.800Z,62.04
2022-12-29T03:07:11.887Z,62.04
2022-12-29T03:08:11.954Z,61.94
2022-12-29T03:09:18.791Z,62.04
2022-12-29T03:10:12.116Z,62.25
2022-12-29T03:11:12.214Z,62.35
2022-12-29T03:12:12.266Z,62.55
2022-12-29T03:13:12.351Z,62.66
2022-12-29T03:14:12.434Z,62.76
2022-12-29T03:15:12.519Z,62.55
2022-12-29T03:16:12.590Z,62.55
2022-12-29T03:17:12.766Z,62.46
2022-12-29T03:18:12.764Z,62.25
2022-12-29T03:19:12.860Z,62.35
2022-12-29T03:20:12.890Z,62.04
2022-12-29T03:21:12.987Z,61.73
2022-12-29T03:22:13.030Z,61.42
2022-12-29T03:23:13.118Z,61.42
2022-12-29T03:24:13.210Z,61.32
2022-12-29T03:25:13.307Z,61.32
2022-12-29T03:26:13.395Z,61.73
2022-12-29T03:27:13.472Z,61.52
2022-12-29T03:28:13.567Z,61.42
2022-12-29T03:29:13.643Z,61.32
2022-12-29T03:30:13.702Z,61.42
2022-12-29T03:31:13.891Z,61.22
2022-12-29T03:32:13.900Z,61.01
2022-12-29T03:33:14.001Z,61.14
2022-12-29T03:34:14.061Z,61.55
2022-12-29T03:35:14.144Z,61.35
2022-12-29T03:36:14.220Z,61.55
2022-12-29T03:37:14.356Z,61.76
2022-12-29T03:38:14.374Z,61.76
2022-12-29T03:39:14.469Z,61.76
2022-12-29T03:40:14.538Z,61.97
2022-12-29T03:41:14.646Z,61.87
2022-12-29T03:42:14.665Z,61.87
2022-12-29T03:43:14.750Z,62.38
2022-12-29T03:44:14.830Z,62.07
2022-12-29T03:45:14.902Z,62.27
2022-12-29T03:46:15.018Z,62.27
2022-12-29T03:47:15.049Z,62.17
2022-12-29T03:48:15.113Z,61.97
2022-12-29T03:49:15.204Z,61.55
2022-12-29T03:50:15.286Z,61.24
2022-12-29T03:51:15.399Z,61.04
2022-12-29T03:52:15.453Z,61.24
2022-12-29T03:53:15.549Z,60.83
2022-12-29T03:54:15.623Z,60.63
2022-12-29T03:55:15.740Z,60.63
2022-12-29T03:56:15.832Z,60.00
2022-12-29T03:57:15.885Z,59.69
2022-12-29T03:58:15.939Z,59.69
2022-12-29T03:59:16.036Z,59.59
2022-12-29T04:00:16.095Z,59.18
2022-12-29T04:01:16.274Z,59.49
2022-12-29T04:02:16.505Z,59.49
2022-12-29T04:03:16.420Z,58.97
2022-12-29T04:04:16.437Z,58.66
2022-12-29T04:05:16.525Z,58.97
2022-12-29T04:06:16.600Z,59.28
2022-12-29T04:07:16.678Z,59.49
2022-12-29T04:08:16.699Z,59.39
2022-12-29T04:09:16.809Z,59.69
2022-12-29T04:10:16.863Z,59.59
2022-12-29T04:11:16.958Z,59.80
2022-12-29T04:12:17.011Z,59.69
2022-12-29T04:13:17.189Z,59.77
2022-12-29T04:14:17.181Z,59.98
2022-12-29T04:15:17.269Z,59.98
2022-12-29T04:16:17.390Z,59.88
2022-12-29T04:17:17.406Z,59.98
2022-12-29T04:18:17.468Z,59.67
2022-12-29T04:19:17.548Z,60.18
2022-12-29T04:20:17.594Z,60.18
2022-12-29T04:21:17.702Z,60.28
2022-12-29T04:22:17.783Z,60.49
2022-12-29T04:23:17.880Z,60.70
2022-12-29T04:24:17.922Z,60.39
2022-12-29T04:25:18.035Z,60.39
2022-12-29T04:26:18.131Z,60.39
2022-12-29T04:27:18.257Z,60.49
2022-12-29T04:28:18.298Z,60.28
2022-12-29T04:29:18.380Z,60.60
2022-12-29T04:30:18.464Z,60.28
2022-12-29T04:31:18.801Z,60.28
2022-12-29T04:32:18.608Z,60.39
2022-12-29T04:33:19.247Z,60.49
2022-12-29T04:34:18.774Z,60.60
2022-12-29T04:35:18.853Z,60.80
2022-12-29T04:36:18.945Z,60.91
2022-12-29T04:37:19.014Z,59.88
2022-12-29T04:38:19.097Z,60.08
2022-12-29T04:39:19.184Z,60.18
2022-12-29T04:40:19.256Z,59.67
2022-12-29T04:41:19.361Z,58.33
2022-12-29T04:42:19.396Z,58.22
2022-12-29T04:43:19.483Z,58.43
2022-12-29T04:44:19.561Z,58.84
2022-12-29T04:45:19.639Z,59.05
2022-12-29T04:46:19.770Z,58.64
2022-12-29T04:47:19.812Z,58.74
2022-12-29T04:48:19.904Z,58.61
2022-12-29T04:49:19.993Z,58.20
2022-12-29T04:50:20.022Z,58.30
2022-12-29T04:51:20.118Z,58.40
2022-12-29T04:52:20.190Z,58.61
2022-12-29T04:53:20.271Z,58.71
2022-12-29T04:54:20.364Z,58.81
2022-12-29T04:55:20.435Z,59.02
2022-12-29T04:56:20.556Z,58.81
2022-12-29T04:57:20.624Z,58.71
2022-12-29T04:58:22.875Z,57.89
2022-12-29T04:59:20.787Z,58.30
2022-12-29T05:00:20.899Z,57.26
2022-12-29T05:01:21.117Z,57.57
2022-12-29T05:02:21.176Z,58.30
2022-12-29T05:03:21.294Z,58.92
2022-12-29T05:04:21.248Z,58.71
2022-12-29T05:05:21.288Z,58.81
2022-12-29T05:06:21.388Z,58.92
2022-12-29T05:07:21.422Z,58.92
2022-12-29T05:08:27.619Z,58.71
2022-12-29T05:09:21.578Z,58.30
2022-12-29T05:10:21.647Z,58.40
2022-12-29T05:11:21.778Z,58.71
2022-12-29T05:12:21.810Z,58.71
2022-12-29T05:13:21.896Z,58.92
2022-12-29T05:14:21.963Z,58.92
2022-12-29T05:15:22.124Z,58.81
2022-12-29T05:16:22.231Z,58.81
2022-12-29T05:17:22.238Z,59.12
2022-12-29T05:18:22.330Z,58.81
2022-12-29T05:19:22.428Z,59.02
2022-12-29T05:20:22.512Z,59.02
2022-12-29T05:21:22.620Z,59.12
2022-12-29T05:22:22.712Z,59.12
2022-12-29T05:23:22.785Z,59.12
2022-12-29T05:24:22.887Z,58.61
2022-12-29T05:25:22.960Z,58.92
2022-12-29T05:26:23.069Z,59.23
2022-12-29T05:27:23.133Z,59.02
2022-12-29T05:28:23.203Z,59.02
2022-12-29T05:29:23.278Z,59.02
2022-12-29T05:30:23.384Z,58.71
2022-12-29T05:31:23.588Z,58.81
2022-12-29T05:32:23.558Z,58.53
2022-12-29T05:33:23.688Z,58.84
2022-12-29T05:34:23.722Z,58.81
2022-12-29T05:35:23.805Z,59.02
2022-12-29T05:36:23.905Z,58.81
2022-12-29T05:37:23.966Z,58.64
2022-12-29T05:38:24.054Z,58.64
2022-12-29T05:39:24.129Z,58.81
2022-12-29T05:40:24.219Z,58.64
2022-12-29T05:41:24.309Z,58.64
2022-12-29T05:42:24.398Z,58.92
2022-12-29T05:43:24.473Z,59.05
2022-12-29T05:44:24.569Z,59.25
2022-12-29T09:28:23.059Z,76.99
2022-12-29T09:29:24.030Z,77.06
2022-12-29T09:30:24.101Z,77.26
2022-12-29T09:31:24.272Z,77.23
2022-12-29T09:32:27.499Z,77.02
2022-12-29T09:33:24.359Z,76.68
2022-12-29T09:34:24.414Z,76.23
2022-12-29T09:35:24.506Z,75.67
2022-12-29T09:36:24.598Z,75.26
2022-12-29T09:37:24.668Z,74.91
2022-12-29T09:38:24.765Z,74.57
2022-12-29T09:39:24.832Z,74.36
2022-12-29T09:40:24.919Z,74.22
2022-12-29T09:41:25.026Z,74.02
2022-12-29T09:42:25.108Z,73.88
2022-12-29T09:43:25.178Z,73.77
2022-12-29T09:44:25.280Z,73.57
2022-12-29T09:45:25.373Z,73.33
2022-12-29T09:46:25.523Z,73.22
2022-12-29T09:47:25.524Z,73.02
2022-12-29T09:48:25.604Z,72.78
2022-12-29T09:49:25.678Z,72.78
2022-12-29T09:50:25.790Z,72.57
2022-12-29T09:51:25.831Z,72.47
2022-12-29T09:52:25.918Z,72.33
2022-12-29T09:53:26.007Z,72.12
2022-12-29T09:54:26.071Z,72.12
2022-12-29T09:55:26.145Z,71.92
2022-12-29T09:56:26.273Z,71.57
2022-12-29T09:57:26.309Z,71.16
2022-12-29T09:58:26.422Z,70.75
2022-12-29T09:59:26.514Z,70.12
2022-12-29T10:00:26.595Z,69.92
2022-12-29T10:01:26.804Z,69.82
2022-12-29T10:02:26.856Z,69.68
2022-12-29T10:03:26.914Z,69.68
2022-12-29T10:04:26.949Z,69.68
2022-12-29T10:05:27.015Z,69.58
2022-12-29T10:06:27.153Z,69.58
2022-12-29T10:07:29.916Z,69.54
2022-12-29T10:08:27.335Z,69.54
2022-12-29T10:09:27.399Z,69.44
2022-12-29T10:10:27.505Z,69.34
2022-12-29T10:11:27.591Z,69.24
2022-12-29T10:12:27.657Z,68.79
2022-12-29T10:13:27.736Z,68.69
2022-12-29T10:14:27.826Z,68.59
2022-12-29T10:15:27.887Z,68.48
2022-12-29T10:16:28.038Z,67.76
2022-12-29T10:17:28.017Z,67.35
2022-12-29T10:18:28.127Z,66.91
2022-12-29T10:19:32.901Z,67.00
2022-12-29T10:20:28.259Z,67.11
2022-12-29T10:21:28.345Z,67.11
2022-12-29T10:22:28.387Z,66.39
2022-12-29T10:23:28.486Z,66.18
2022-12-29T10:24:28.557Z,66.36
2022-12-29T10:25:32.869Z,66.46
2022-12-29T10:26:28.825Z,66.56
2022-12-29T10:27:28.811Z,66.56
2022-12-29T10:28:28.901Z,66.36
2022-12-29T10:29:28.978Z,66.25
2022-12-29T10:30:29.045Z,66.25
2022-12-29T10:31:29.221Z,66.25
2022-12-29T10:32:29.222Z,66.25
2022-12-29T10:33:29.294Z,66.25
2022-12-29T10:34:29.363Z,66.25
2022-12-29T10:35:29.456Z,65.95
2022-12-29T10:36:29.584Z,65.95
2022-12-29T10:37:33.732Z,65.71
2022-12-29T10:38:29.728Z,65.71
2022-12-29T10:39:29.808Z,65.71
2022-12-29T10:40:29.873Z,65.40
2022-12-29T10:41:29.959Z,65.09
2022-12-29T10:42:30.040Z,64.89
2022-12-29T10:43:30.161Z,63.82
2022-12-29T10:44:30.227Z,63.72
2022-12-29T10:45:30.305Z,63.93
2022-12-29T10:46:30.404Z,64.03
2022-12-29T10:47:30.461Z,63.62
2022-12-29T10:48:32.125Z,63.69
2022-12-29T10:49:30.607Z,63.59
2022-12-29T10:50:30.703Z,63.49
2022-12-29T10:51:30.740Z,63.69
2022-12-29T10:52:30.835Z,63.18
2022-12-29T10:53:30.915Z,62.87
2022-12-29T10:54:30.997Z,62.53
2022-12-29T10:55:31.045Z,62.23
2022-12-29T10:56:31.163Z,62.12
2022-12-29T10:57:31.193Z,62.23
2022-12-29T10:58:31.285Z,62.19
2022-12-29T10:59:31.357Z,62.19
2022-12-29T11:00:31.426Z,62.40
2022-12-29T11:01:31.617Z,62.19
2022-12-29T11:02:31.759Z,61.76
2022-12-29T11:03:31.726Z,61.96
2022-12-29T11:04:31.770Z,61.76
2022-12-29T11:05:31.846Z,61.55
2022-12-29T11:06:31.968Z,61.55
2022-12-29T11:07:32.001Z,61.44
2022-12-29T11:08:32.113Z,61.55
2022-12-29T11:09:47.419Z,61.65
2022-12-29T11:14:59.402Z,59.93
2022-12-29T11:15:59.936Z,59.93
2022-12-29T11:16:59.896Z,60.24
2022-12-29T11:18:00.584Z,60.21
2022-12-29T11:19:00.072Z,60.42
2022-12-29T11:20:00.069Z,60.63
2022-12-29T11:21:00.146Z,60.73
2022-12-29T11:22:00.340Z,60.39
2022-12-29T11:23:00.406Z,59.06
2022-12-29T11:24:00.469Z,58.95
2022-12-29T11:25:00.512Z,58.64
2022-12-29T11:26:00.596Z,58.62
2022-12-29T11:27:00.678Z,58.51
2022-12-29T11:28:00.784Z,58.51
2022-12-29T11:29:00.823Z,58.69
2022-12-29T11:30:00.958Z,58.49
2022-12-29T11:31:00.998Z,57.77
2022-12-29T11:32:01.228Z,57.77
2022-12-29T11:33:01.158Z,57.95
2022-12-29T11:34:01.243Z,58.15
2022-12-29T11:35:01.314Z,58.26
2022-12-29T11:36:01.417Z,58.46
2022-12-29T11:37:01.516Z,58.46
2022-12-29T11:38:01.610Z,58.36
2022-12-29T11:39:01.678Z,58.56
2022-12-29T11:40:01.819Z,58.46
2022-12-29T11:41:01.864Z,58.46
2022-12-29T11:42:01.947Z,58.46
2022-12-29T11:43:02.057Z,58.56
2022-12-29T11:44:02.139Z,58.46
2022-12-29T11:45:05.130Z,58.26
2022-12-29T11:46:02.364Z,57.54
2022-12-29T11:47:02.402Z,57.84
2022-12-29T11:48:02.489Z,58.05
2022-12-29T11:49:02.567Z,57.64
2022-12-29T11:50:02.670Z,57.43
2022-12-29T11:51:02.723Z,57.75
2022-12-29T11:52:02.804Z,58.05
2022-12-29T11:53:02.881Z,57.61
2022-12-29T11:54:02.983Z,57.71
2022-12-29T11:55:03.077Z,58.12
2022-12-29T11:56:03.161Z,58.33
2022-12-29T11:57:03.230Z,58.44
2022-12-29T11:58:03.336Z,58.44
2022-12-29T11:59:03.441Z,58.33
2022-12-29T12:00:03.503Z,57.92
2022-12-29T12:01:03.588Z,57.20
2022-12-29T12:02:03.804Z,57.59
2022-12-29T12:03:03.944Z,57.89
2022-12-29T12:04:03.856Z,57.38
2022-12-29T12:05:03.925Z,55.74
2022-12-29T12:06:04.011Z,55.54
2022-12-29T12:07:04.094Z,55.64
2022-12-29T12:08:04.211Z,54.49
2022-12-29T12:09:04.239Z,54.49
2022-12-29T12:10:07.764Z,53.26
2022-12-29T12:11:04.412Z,53.36
2022-12-29T12:12:04.504Z,53.26
2022-12-29T12:13:04.578Z,52.72
2022-12-29T12:14:04.637Z,52.42
2022-12-29T12:15:04.707Z,52.31
2022-12-29T12:16:04.824Z,52.00
2022-12-29T12:17:04.874Z,52.19
2022-12-29T12:18:05.029Z,52.49
2022-12-29T12:19:05.064Z,52.19
2022-12-29T12:20:05.138Z,51.88
2022-12-29T12:21:05.223Z,51.88
2022-12-29T12:22:05.316Z,52.08
2022-12-29T12:23:05.422Z,51.98
2022-12-29T12:24:05.487Z,51.88
2022-12-29T12:25:05.526Z,51.86
2022-12-29T12:26:05.621Z,51.75
2022-12-29T12:27:05.694Z,51.54
2022-12-29T12:28:05.798Z,51.14
2022-12-29T12:29:05.849Z,50.93
2022-12-29T12:30:05.969Z,51.14
2022-12-29T12:31:06.175Z,51.04
2022-12-29T12:32:06.121Z,50.32
2022-12-29T12:33:06.225Z,50.32
2022-12-29T12:34:06.276Z,49.81
2022-12-29T12:35:06.366Z,49.91
2022-12-29T12:36:06.446Z,49.40
2022-12-29T12:37:06.504Z,49.38
2022-12-29T12:38:06.660Z,49.79
2022-12-29T12:39:06.648Z,49.89
2022-12-29T12:40:06.782Z,50.09
2022-12-29T12:41:06.841Z,50.30
2022-12-29T12:42:07.021Z,50.50
2022-12-29T12:43:07.026Z,50.50
2022-12-29T12:44:07.073Z,50.71
2022-12-29T12:45:07.161Z,50.91
2022-12-29T12:46:07.293Z,50.91
2022-12-29T12:47:07.311Z,49.99
2022-12-29T12:48:07.404Z,49.99
2022-12-29T12:49:07.448Z,49.99
2022-12-29T12:50:07.541Z,49.99
2022-12-29T12:51:07.594Z,50.20
2022-12-29T12:52:07.693Z,50.60
2022-12-29T12:53:07.843Z,50.91
2022-12-29T12:54:07.903Z,51.01
2022-12-29T12:55:07.952Z,50.60
2022-12-29T12:56:08.050Z,50.81
2022-12-29T12:57:08.125Z,50.81
2022-12-29T12:58:08.210Z,50.81
2022-12-29T12:59:09.992Z,50.91
2022-12-29T13:00:08.357Z,51.01
2022-12-29T13:01:08.439Z,49.87
2022-12-29T13:02:08.650Z,49.55
2022-12-29T13:03:08.949Z,49.96
2022-12-29T13:04:08.684Z,50.17
2022-12-29T13:05:08.731Z,49.76
2022-12-29T13:06:08.832Z,49.66
2022-12-29T13:07:08.895Z,49.66
2022-12-29T13:08:08.993Z,49.87
2022-12-29T13:09:09.059Z,49.96
2022-12-29T13:10:09.158Z,49.87
2022-12-29T13:11:09.209Z,49.15
2022-12-29T13:12:09.304Z,49.35
2022-12-29T13:13:09.551Z,49.05
2022-12-29T13:14:09.488Z,49.46
2022-12-29T13:15:09.545Z,49.66
2022-12-29T13:16:14.035Z,49.76
2022-12-29T13:17:09.722Z,49.96
2022-12-29T13:18:09.863Z,50.07
2022-12-29T13:19:09.871Z,50.27
2022-12-29T13:20:10.063Z,50.48
2022-12-29T13:25:32.896Z,50.91
2022-12-29T13:26:33.733Z,51.14
2022-12-29T13:27:37.642Z,51.34
2022-12-29T13:28:34.135Z,51.54
2022-12-29T13:29:33.943Z,51.75
2022-12-29T13:30:34.084Z,51.95
2022-12-29T13:31:34.245Z,52.06
2022-12-29T13:32:34.249Z,51.95
2022-12-29T13:33:34.399Z,52.16
2022-12-29T13:34:34.408Z,51.95
2022-12-29T13:35:34.491Z,51.95
2022-12-29T13:36:34.530Z,52.16
2022-12-29T13:37:34.616Z,52.34
2022-12-29T13:38:34.827Z,52.34
2022-12-29T13:39:34.793Z,52.14
2022-12-29T13:40:34.958Z,51.93
2022-12-29T13:44:18.546Z,52.26
2022-12-29T13:45:19.438Z,52.26
2022-12-29T13:51:10.086Z,52.19
2022-12-29T14:10:15.561Z,51.62
2022-12-29T14:16:07.038Z,51.54
2022-12-29T14:18:50.191Z,50.93
2022-12-29T14:19:51.273Z,50.93
2022-12-29T14:20:51.244Z,51.03
2022-12-29T14:21:51.397Z,51.03
2022-12-29T14:22:51.373Z,50.93
2022-12-29T14:23:51.444Z,51.13
2022-12-29T14:24:51.565Z,51.10
2022-12-29T14:25:51.616Z,51.01
2022-12-29T14:26:51.707Z,50.90
2022-12-29T14:27:51.790Z,51.01
2022-12-29T14:28:51.873Z,51.01
2022-12-29T14:29:51.928Z,51.10
2022-12-29T14:30:52.034Z,50.98
2022-12-29T14:31:52.184Z,50.57
2022-12-29T14:32:52.200Z,50.26
2022-12-29T14:33:52.336Z,49.75
2022-12-29T14:34:52.973Z,49.55
2022-12-29T14:35:52.421Z,49.55
2022-12-29T14:36:52.536Z,49.34
2022-12-29T14:37:52.645Z,49.75
2022-12-29T14:38:52.757Z,49.85
2022-12-29T14:39:52.856Z,49.44
2022-12-29T14:40:52.928Z,49.44
2022-12-29T15:19:08.777Z,49.72
2022-12-29T15:20:09.935Z,49.62
2022-12-29T15:21:09.772Z,49.51
2022-12-29T15:22:09.803Z,49.82
2022-12-29T15:23:09.879Z,49.00
2022-12-29T15:48:17.153Z,52.64
2022-12-29T17:10:46.500Z,57.50
2022-12-29T17:23:51.771Z,56.44
2022-12-29T17:24:52.895Z,56.44
2022-12-29T17:30:33.241Z,55.90
2022-12-29T17:41:09.252Z,55.90
2022-12-29T18:00:58.777Z,56.31
2022-12-29T18:04:44.422Z,57.03
2022-12-29T18:11:42.234Z,58.06
2022-12-29T18:23:40.048Z,58.39
2022-12-29T18:27:25.139Z,58.29
2022-12-29T18:40:29.058Z,59.75
2022-12-29T18:47:12.023Z,60.37
2022-12-29T18:48:13.037Z,60.37
2022-12-29T18:49:13.087Z,60.37
2022-12-29T18:50:13.215Z,60.35
2022-12-29T18:51:13.881Z,60.14
2022-12-29T18:52:13.364Z,60.24
2022-12-29T18:53:13.387Z,60.45
2022-12-29T18:54:13.482Z,60.42
2022-12-29T18:55:13.520Z,60.21
2022-12-29T18:56:13.600Z,60.11
2022-12-29T19:09:07.796Z,63.71
2022-12-29T19:10:08.892Z,64.01
2022-12-29T19:17:45.680Z,66.48
2022-12-29T19:18:55.770Z,67.38
